Wilmette, IL

2:38 PM CDT on September 16, 2014 (GMT -0500)
Wilmette | Change Station
CLOSE
Current Station
Personal Weather Station
Location: Wilmette, IL
Elevation: 630 ft
Nearby Weather Stations

Elev 630 ft 42.08 °N, 87.70 °W | Updated 9 seconds ago

Clear
Clear
65.1 °F
Feels Like 65.1 °F
N
0.2
Wind Variable Wind from East
Gusts 2.5 mph

Today
High -- | Low -- °F
--% Chance of Precip.
Yesterday
High -- | Low -- °F
Precip. -- in
6:32 AM 6:58 PM
Last Quarter, 43% visible
Pressure 30.17 in
Visibility 10.0 miles
Clouds Clear
Dew Point 47 °F
Humidity 52%
Rainfall 0.00 in
Snow Depth Not available.
UV 5.0 out of 12
Pollen 5.90 out of 12
Ozone Good
PM2.5 Good
Flu Activity Not available.
METAR KPWK 161852Z 16004KT 10SM CLR 18/05 A3016 RMK AO2 SLP214 T01830050

More Conditions Fewer Conditions

Pressure 30.17 in
Visibility 10.0 miles
Clouds Clear
Dew Point 47 °F
Humidity 52%
Rainfall 0.00 in
Snow Depth Not available.
UV 5.0 out of 12
Pollen 5.90 out of 12
Ozone Good
PM2.5 Good
Flu Activity Not available.
METAR KPWK 161852Z 16004KT 10SM CLR 18/05 A3016 RMK AO2 SLP214 T01830050

More Conditions Fewer Conditions

10-Day Weather Forecast

Almanac

Astronomy

Sep. 16, 2014 Rise Set
Actual Time 6:32 AM CDT 6:58 PM CDT
Civil Twilight 6:03 AM CDT 7:26 PM CDT
Nautical Twilight 5:30 AM CDT 7:59 PM CDT
Astronomical Twilight 4:56 AM CDT 8:33 PM CDT
Moon No Moon Rise 2:26 PM CDT
Length of Visible Light 13h 22m
Length of Day
12h 26m
Tomorrow will be 2m 47s shorter.
Last Quarter, 43% of the Moon is Illuminated
Today
Last Quarter
Sep 24
New
Oct 1
First Quarter
Oct 8
Full
Oct 15
Last Quarter

Today's Extremes

State Highs State Lows

Community

WunderPhotos

Upload Photos

1,753,860 photos uploaded!

Nearby

Air Quality

  Air Quality AQ Index Pollutant
Yesterday Good
PM2.5
Yesterday Good
OZONE
Current Good
PM2.5
Current Good
OZONE
Tuesday Good
PM2.5
Wednesday Good
PM2.5
Thursday Moderate
PM2.5
Friday Moderate
PM2.5

Snow Depth

Station Depth Elevation
No new snow has been reported.

Earthquake Activity

City Distance Mag. Time & Date
No recent earthquake activity has been reported nearby.
Minimum magnitude displayed is 2.5.

Coastal Water Temperatures

Place Temperature
No Stations Reporting

Nearby Weather Stations